Time;durP1;ratioP1;P1;durP2;ratioP2;P2;SDS_P1;SDS_P2;PMS_P1;PMS_P2;Temp;Humidity;BMP_temperature;BMP_pressure;BME280_temperature;BME280_humidity;BME280_pressure;Samples;Min_cycle;Max_cycle;Signal;HPM_P1;HPM_P2
2022/12/06 00:02:13;;;;;;;0.80;0.60;;;20.00;38.50;;;;;;5051207;28;20152;-53
2022/12/06 00:04:38;;;;;;;0.65;0.40;;;20.00;38.40;;;;;;5049272;28;20124;-59
2022/12/06 00:07:04;;;;;;;0.63;0.47;;;20.00;38.40;;;;;;5048652;28;20044;-57
2022/12/06 00:09:32;;;;;;;0.63;0.47;;;20.00;38.40;;;;;;5049875;28;20357;-53
2022/12/06 00:11:58;;;;;;;0.73;0.60;;;20.00;38.40;;;;;;5050850;28;20060;-58
2022/12/06 00:14:26;;;;;;;0.50;0.47;;;20.00;38.40;;;;;;5049008;28;20127;-53
2022/12/06 00:16:52;;;;;;;0.70;0.57;;;20.00;38.40;;;;;;5050651;28;20032;-54
2022/12/06 00:19:22;;;;;;;0.38;0.38;;;20.10;38.50;;;;;;5048097;28;20086;-57
2022/12/06 00:21:48;;;;;;;1.10;0.70;;;20.00;38.40;;;;;;5051428;28;20044;-57
2022/12/06 00:24:17;;;;;;;0.77;0.47;;;20.00;38.40;;;;;;5049710;28;20029;-54
2022/12/06 00:26:44;;;;;;;0.90;0.60;;;20.00;38.40;;;;;;5051126;28;20021;-52
2022/12/06 00:29:13;;;;;;;0.45;0.35;;;20.00;38.40;;;;;;5049014;28;20031;-54
2022/12/06 00:31:39;;;;;;;1.30;0.50;;;20.00;38.40;;;;;;5051632;28;20418;-58
2022/12/06 00:34:04;;;;;;;2.42;0.43;;;20.00;38.40;;;;;;5050210;28;20044;-56
2022/12/06 00:36:33;;;;;;;1.17;0.65;;;20.00;38.40;;;;;;5016822;28;20048;-56
2022/12/06 00:39:02;;;;;;;0.45;0.45;;;20.00;38.40;;;;;;5049970;28;20059;-54
2022/12/06 00:41:28;;;;;;;0.43;0.32;;;20.00;38.40;;;;;;5054431;28;20029;-54
2022/12/06 00:43:54;;;;;;;0.55;0.35;;;20.00;38.40;;;;;;5053778;28;20021;-54
2022/12/06 00:46:23;;;;;;;0.55;0.50;;;20.00;38.40;;;;;;5052957;28;20795;-55
2022/12/06 00:48:50;;;;;;;0.40;0.40;;;19.90;38.40;;;;;;5034619;28;20035;-52
2022/12/06 00:51:17;;;;;;;0.80;0.52;;;19.90;38.40;;;;;;5054838;28;20546;-55
2022/12/06 00:53:44;;;;;;;0.35;0.30;;;19.90;38.40;;;;;;5053808;28;20086;-55
2022/12/06 00:56:11;;;;;;;0.50;0.50;;;19.90;38.30;;;;;;5035741;28;20134;-57
2022/12/06 00:58:37;;;;;;;1.40;0.60;;;19.90;38.40;;;;;;5052291;28;20020;-54
2022/12/06 01:01:08;;;;;;;1.65;0.43;;;19.90;38.40;;;;;;5052271;28;20040;-54
2022/12/06 01:03:35;;;;;;;0.47;0.30;;;19.90;38.40;;;;;;5054096;28;20029;-54
2022/12/06 01:06:04;;;;;;;0.70;0.30;;;19.90;38.40;;;;;;5053776;28;20033;-56
2022/12/06 01:08:31;;;;;;;0.30;0.30;;;19.90;38.40;;;;;;5053797;28;20091;-54
2022/12/06 01:10:57;;;;;;;0.65;0.43;;;19.90;38.40;;;;;;5051803;28;20065;-56
2022/12/06 01:13:23;;;;;;;0.82;0.40;;;19.90;38.40;;;;;;5035214;28;20067;-56
2022/12/06 01:15:49;;;;;;;0.68;0.38;;;19.90;38.40;;;;;;5053414;28;20075;-56
2022/12/06 01:18:15;;;;;;;0.68;0.50;;;19.90;38.40;;;;;;5053512;28;20437;-55
2022/12/06 01:20:41;;;;;;;0.30;0.30;;;19.90;38.30;;;;;;5052200;28;20348;-53
2022/12/06 01:23:07;;;;;;;0.50;0.40;;;19.90;38.40;;;;;;5054645;28;20021;-53
2022/12/06 01:25:32;;;;;;;0.30;0.30;;;19.90;38.30;;;;;;5053677;28;20440;-54
2022/12/06 01:27:59;;;;;;;1.08;0.40;;;19.90;38.30;;;;;;5052899;28;20028;-56
2022/12/06 01:30:25;;;;;;;0.73;0.40;;;19.90;38.30;;;;;;5051539;28;20025;-59
2022/12/06 01:32:51;;;;;;;0.80;0.60;;;19.90;38.40;;;;;;5051491;28;20029;-54
2022/12/06 01:35:16;;;;;;;1.08;0.43;;;19.90;38.30;;;;;;5053090;28;20053;-53
2022/12/06 01:37:42;;;;;;;1.48;0.50;;;19.80;38.30;;;;;;5051763;28;20032;-56
2022/12/06 01:40:10;;;;;;;0.75;0.52;;;19.80;38.30;;;;;;5051626;28;20021;-56
2022/12/06 01:42:36;;;;;;;0.40;0.40;;;19.80;38.30;;;;;;5052596;28;20052;-55
2022/12/06 01:45:03;;;;;;;0.65;0.45;;;19.80;38.30;;;;;;5050595;28;20060;-54
2022/12/06 01:47:32;;;;;;;0.90;0.38;;;19.80;38.30;;;;;;5053564;28;20025;-57
2022/12/06 01:50:17;;;;;;;0.88;0.52;;;19.80;38.30;;;;;;5052840;28;20025;-57
2022/12/06 01:52:55;;;;;;;0.60;0.50;;;19.80;38.30;;;;;;5052628;28;20471;-56
2022/12/06 01:55:24;;;;;;;0.60;0.38;;;19.80;38.30;;;;;;5052459;28;20033;-55
2022/12/06 01:57:56;;;;;;;0.75;0.50;;;19.80;38.30;;;;;;5052633;28;20025;-53
2022/12/06 02:00:22;;;;;;;0.68;0.50;;;19.80;38.30;;;;;;5053203;28;20104;-56
2022/12/06 02:02:47;;;;;;;0.80;0.50;;;19.80;38.30;;;;;;5052612;28;20119;-55
2022/12/06 02:05:15;;;;;;;1.50;0.60;;;19.80;38.30;;;;;;5052581;28;20064;-54
2022/12/06 02:07:42;;;;;;;1.90;0.80;;;19.80;38.30;;;;;;5049677;28;20025;-56
2022/12/06 02:10:08;;;;;;;0.88;0.50;;;19.80;38.30;;;;;;5051663;28;20095;-55
2022/12/06 02:12:34;;;;;;;1.33;0.52;;;19.80;38.30;;;;;;5052621;28;20031;-56
2022/12/06 02:15:00;;;;;;;0.60;0.30;;;19.80;38.30;;;;;;5051728;28;20121;-54
2022/12/06 02:17:35;;;;;;;0.73;0.60;;;19.80;38.40;;;;;;5052367;28;20041;-57
2022/12/06 02:20:24;;;;;;;;;;;19.80;38.40;;;;;;5048839;28;20037;-56
2022/12/06 02:22:55;;;;;;;0.55;0.43;;;19.70;38.40;;;;;;5048692;28;20316;-54
2022/12/06 02:25:41;;;;;;;1.02;0.43;;;19.70;38.40;;;;;;5050681;28;20060;-53
2022/12/06 02:28:53;;;;;;;0.70;0.50;;;19.70;38.40;;;;;;5052043;28;20333;-54
2022/12/06 02:31:24;;;;;;;1.05;0.55;;;19.70;38.50;;;;;;4992045;28;20345;-55
2022/12/06 02:34:01;;;;;;;1.08;0.50;;;19.70;38.50;;;;;;5049897;28;20040;-51
2022/12/06 02:36:36;;;;;;;0.50;0.40;;;19.70;38.50;;;;;;5050308;28;20032;-53
2022/12/06 02:39:08;;;;;;;1.27;0.50;;;19.70;38.50;;;;;;5049887;28;20021;-52
2022/12/06 02:41:52;;;;;;;1.33;0.52;;;19.70;38.60;;;;;;5049900;28;20132;-50
2022/12/06 02:44:32;;;;;;;0.90;0.50;;;19.70;38.60;;;;;;5052364;28;20446;-55
2022/12/06 02:47:02;;;;;;;1.08;0.52;;;19.70;38.50;;;;;;5052759;28;20067;-51
2022/12/06 02:49:32;;;;;;;0.93;0.57;;;19.70;38.60;;;;;;5050796;28;20025;-53
2022/12/06 02:51:58;;;;;;;0.85;0.60;;;19.70;38.60;;;;;;5051794;28;20037;-52
2022/12/06 02:54:25;;;;;;;1.00;0.55;;;19.70;38.60;;;;;;5051694;28;20032;-56
2022/12/06 02:56:51;;;;;;;1.50;0.73;;;19.70;38.60;;;;;;5049601;28;20044;-54
2022/12/06 02:59:17;;;;;;;0.70;0.60;;;19.70;38.60;;;;;;5051907;28;20033;-53
2022/12/06 03:01:48;;;;;;;0.95;0.57;;;19.70;38.60;;;;;;5050660;28;20100;-55
2022/12/06 03:04:32;;;;;;;0.77;0.50;;;19.70;38.60;;;;;;5049899;28;20025;-54
2022/12/06 03:07:19;;;;;;;1.38;0.70;;;19.70;39.20;;;;;;5050177;28;20032;-55
2022/12/06 03:10:02;;;;;;;0.98;0.50;;;19.70;38.60;;;;;;5049447;28;20053;-53
2022/12/06 03:12:31;;;;;;;0.80;0.50;;;19.60;38.50;;;;;;5046639;28;20041;-54
2022/12/06 03:15:22;;;;;;;1.63;0.70;;;19.60;38.60;;;;;;5051286;28;20136;-55
2022/12/06 03:17:51;;;;;;;1.23;0.60;;;19.70;38.60;;;;;;5051721;28;20035;-51
2022/12/06 03:20:43;;;;;;;1.02;0.60;;;19.60;38.60;;;;;;5052142;28;20048;-52
2022/12/06 03:23:15;;;;;;;0.50;0.40;;;19.60;38.50;;;;;;5049961;28;20060;-53
2022/12/06 03:25:44;;;;;;;0.88;0.50;;;19.60;38.60;;;;;;5050136;28;20025;-51
2022/12/06 03:28:13;;;;;;;2.30;0.60;;;19.60;38.50;;;;;;5051036;28;20102;-51
2022/12/06 03:30:42;;;;;;;1.50;0.60;;;19.60;38.60;;;;;;5051284;28;20036;-54
2022/12/06 03:33:10;;;;;;;1.92;0.70;;;19.60;38.60;;;;;;5051390;28;20369;-51
2022/12/06 03:35:37;;;;;;;1.48;0.60;;;19.60;38.60;;;;;;5050772;28;20348;-52
2022/12/06 03:38:15;;;;;;;1.77;0.50;;;19.60;38.60;;;;;;5050681;28;20027;-54
2022/12/06 03:40:45;;;;;;;2.15;0.90;;;19.60;38.60;;;;;;5051397;28;20471;-54
2022/12/06 03:43:11;;;;;;;1.42;0.60;;;19.60;38.50;;;;;;5050630;28;20056;-50
2022/12/06 03:46:06;;;;;;;1.58;0.65;;;19.60;38.60;;;;;;5052019;28;20057;-54
2022/12/06 03:48:39;;;;;;;3.15;0.90;;;19.60;38.60;;;;;;5044756;28;20037;-55
2022/12/06 03:51:14;;;;;;;1.05;0.63;;;19.60;38.60;;;;;;5052704;28;20057;-53
2022/12/06 03:53:49;;;;;;;1.70;0.60;;;19.50;38.50;;;;;;5048304;28;20033;-55
2022/12/06 03:56:15;;;;;;;1.20;0.60;;;19.60;38.70;;;;;;5050313;28;20496;-57
2022/12/06 03:58:41;;;;;;;1.75;0.75;;;19.60;38.70;;;;;;5048197;28;20028;-55
2022/12/06 04:01:07;;;;;;;1.40;0.70;;;19.50;38.70;;;;;;5051088;28;20357;-50
2022/12/06 04:03:33;;;;;;;1.40;0.80;;;19.50;38.70;;;;;;5050710;28;20029;-52
2022/12/06 04:06:01;;;;;;;2.55;0.80;;;19.60;38.70;;;;;;5051224;28;20021;-55
2022/12/06 04:08:27;;;;;;;1.25;0.70;;;19.60;38.70;;;;;;5048557;28;20035;-53
2022/12/06 04:10:53;;;;;;;1.30;0.60;;;19.60;38.70;;;;;;5051348;28;20116;-55
2022/12/06 04:13:18;;;;;;;2.22;0.70;;;19.50;38.70;;;;;;5047420;28;20021;-55
2022/12/06 04:15:44;;;;;;;0.70;0.45;;;19.60;38.80;;;;;;5055631;28;20024;-52
2022/12/06 04:18:13;;;;;;;1.08;0.63;;;19.50;38.70;;;;;;5053924;28;20025;-52
2022/12/06 04:23:49;;;;;;;1.20;0.70;;;19.50;38.70;;;;;;5051659;28;20444;-53
2022/12/06 04:26:20;;;;;;;0.95;0.50;;;19.50;38.70;;;;;;5055387;28;20049;-52
2022/12/06 04:39:44;;;;;;;1.88;0.70;;;19.50;38.70;;;;;;5052164;28;19909;-54
2022/12/06 04:44:55;;;;;;;;;;;19.50;38.70;;;;;;5055053;28;20036;-55
2022/12/06 04:47:21;;;;;;;1.10;0.70;;;19.50;38.70;;;;;;5034034;28;20260;-56
2022/12/06 04:49:47;;;;;;;0.75;0.57;;;19.50;38.70;;;;;;5054102;28;20071;-56
2022/12/06 04:52:13;;;;;;;0.98;0.70;;;19.40;38.70;;;;;;5054945;28;20029;-55
2022/12/06 04:54:40;;;;;;;1.65;0.60;;;19.50;38.70;;;;;;5053127;28;20426;-54
2022/12/06 04:57:09;;;;;;;1.48;0.60;;;19.50;38.70;;;;;;5054329;28;20036;-51
2022/12/06 04:59:37;;;;;;;2.63;0.70;;;19.50;38.70;;;;;;5048531;28;20048;-51
2022/12/06 05:02:03;;;;;;;3.78;0.60;;;19.50;38.70;;;;;;5054935;28;20025;-56
2022/12/06 05:04:30;;;;;;;1.60;0.50;;;19.40;38.60;;;;;;5052587;28;20082;-54
2022/12/06 05:06:56;;;;;;;1.33;0.50;;;19.40;38.60;;;;;;5055065;28;20116;-54
2022/12/06 05:09:22;;;;;;;1.02;0.50;;;19.40;38.60;;;;;;5053877;28;20116;-54
2022/12/06 05:11:47;;;;;;;1.38;0.60;;;19.50;38.70;;;;;;5053125;28;20036;-54
2022/12/06 05:14:13;;;;;;;1.52;0.47;;;19.40;38.60;;;;;;5052595;28;20033;-53
2022/12/06 05:16:39;;;;;;;2.00;0.60;;;19.40;38.60;;;;;;5052937;28;20453;-53
2022/12/06 05:19:05;;;;;;;1.30;0.50;;;19.40;38.60;;;;;;5052414;28;20360;-54
2022/12/06 05:21:30;;;;;;;0.88;0.60;;;19.40;38.60;;;;;;5050906;28;20017;-55
2022/12/06 05:23:57;;;;;;;1.00;0.60;;;19.40;38.60;;;;;;5054090;28;20459;-53
2022/12/06 05:26:26;;;;;;;0.80;0.57;;;19.40;38.60;;;;;;5052418;28;20041;-55
2022/12/06 05:28:52;;;;;;;1.45;0.60;;;19.40;38.60;;;;;;5051621;28;20099;-55
2022/12/06 05:31:19;;;;;;;1.38;0.63;;;19.40;38.60;;;;;;5053781;28;20033;-55
2022/12/06 05:33:46;;;;;;;1.10;0.50;;;19.40;38.60;;;;;;5049304;28;20448;-56
2022/12/06 05:36:15;;;;;;;1.48;0.57;;;19.40;38.60;;;;;;5052771;28;20029;-54
2022/12/06 05:38:41;;;;;;;2.47;0.60;;;19.40;38.60;;;;;;5053241;28;20052;-53
2022/12/06 05:41:07;;;;;;;1.65;0.77;;;19.40;38.60;;;;;;5051143;28;20044;-53
2022/12/06 05:43:33;;;;;;;2.28;0.73;;;19.40;38.60;;;;;;5047954;28;20029;-54
2022/12/06 05:45:59;;;;;;;1.40;0.60;;;19.40;38.60;;;;;;5053619;28;20460;-52
2022/12/06 05:48:25;;;;;;;0.90;0.60;;;19.40;38.60;;;;;;5035863;28;20057;-53
2022/12/06 05:50:52;;;;;;;0.95;0.50;;;19.40;38.60;;;;;;5051236;28;20072;-53
2022/12/06 05:53:18;;;;;;;1.17;0.75;;;19.40;38.60;;;;;;5052145;28;20029;-54
2022/12/06 05:55:44;;;;;;;0.75;0.50;;;19.40;38.60;;;;;;5053341;28;20096;-53
2022/12/06 05:58:11;;;;;;;1.77;0.68;;;19.40;38.60;;;;;;5052433;28;20033;-53
2022/12/06 06:00:37;;;;;;;1.67;0.57;;;19.40;38.60;;;;;;5051834;28;20082;-53
2022/12/06 06:03:03;;;;;;;1.08;0.50;;;19.40;38.60;;;;;;5051877;28;20338;-55
2022/12/06 06:05:29;;;;;;;1.08;0.65;;;19.40;38.60;;;;;;5052931;28;20025;-57
2022/12/06 06:07:55;;;;;;;1.55;0.63;;;19.40;38.60;;;;;;5049766;28;20021;-58
2022/12/06 06:10:22;;;;;;;1.13;0.57;;;19.40;38.60;;;;;;5052566;28;20067;-56
2022/12/06 06:12:47;;;;;;;1.45;0.60;;;19.40;38.60;;;;;;5051850;28;20037;-52
2022/12/06 06:15:14;;;;;;;1.23;0.60;;;19.40;38.60;;;;;;5051525;28;20044;-54
2022/12/06 06:17:42;;;;;;;2.90;0.77;;;19.40;38.60;;;;;;5052014;28;20033;-54
2022/12/06 06:20:12;;;;;;;1.45;0.52;;;19.30;38.60;;;;;;5052723;28;20396;-57
2022/12/06 06:22:40;;;;;;;0.98;0.52;;;19.40;38.60;;;;;;5051440;28;20029;-55
2022/12/06 06:25:06;;;;;;;2.10;0.68;;;19.30;38.50;;;;;;5052464;28;20032;-54
2022/12/06 06:27:36;;;;;;;0.90;0.50;;;19.30;38.50;;;;;;5050381;28;20029;-58
2022/12/06 06:30:07;;;;;;;2.60;0.70;;;19.30;38.60;;;;;;5051710;28;20108;-56
2022/12/06 06:32:33;;;;;;;1.23;0.70;;;19.40;38.60;;;;;;5034863;28;20782;-55
2022/12/06 06:34:59;;;;;;;1.50;0.60;;;19.40;38.60;;;;;;5051189;28;20032;-56
2022/12/06 06:37:25;;;;;;;1.23;0.63;;;19.30;38.60;;;;;;5051827;28;20118;-54
2022/12/06 06:39:51;;;;;;;3.65;0.63;;;19.30;38.60;;;;;;5052195;28;20025;-52
2022/12/06 06:42:17;;;;;;;2.47;0.40;;;19.30;38.60;;;;;;5052978;28;20024;-55
2022/12/06 06:44:43;;;;;;;0.70;0.47;;;19.30;38.60;;;;;;5049006;28;20139;-53
2022/12/06 06:47:09;;;;;;;1.80;0.80;;;19.30;38.70;;;;;;5048540;28;20463;-53
2022/12/06 06:49:35;;;;;;;1.45;0.55;;;19.30;38.80;;;;;;5048274;28;20029;-54
2022/12/06 06:52:01;;;;;;;1.63;0.63;;;19.30;38.80;;;;;;5046945;28;20110;-51
2022/12/06 06:54:26;;;;;;;4.03;0.68;;;19.30;38.80;;;;;;5047686;28;20051;-56
2022/12/06 06:56:56;;;;;;;0.82;0.55;;;19.30;38.80;;;;;;5046989;28;20037;-52
2022/12/06 06:59:23;;;;;;;2.90;0.50;;;19.30;38.80;;;;;;5047012;28;20021;-50
2022/12/06 07:01:49;;;;;;;2.63;0.93;;;19.30;38.80;;;;;;5049110;28;20071;-54
2022/12/06 07:04:15;;;;;;;2.03;0.70;;;19.30;38.80;;;;;;5048001;28;20029;-56
2022/12/06 07:06:41;;;;;;;1.80;0.68;;;19.30;38.80;;;;;;5048020;28;20218;-56
2022/12/06 07:09:07;;;;;;;1.15;0.63;;;19.30;38.70;;;;;;5049453;28;20099;-52
2022/12/06 07:11:33;;;;;;;3.33;0.88;;;19.30;38.80;;;;;;5049213;28;20049;-53
2022/12/06 07:14:01;;;;;;;1.75;0.50;;;19.30;38.80;;;;;;5048859;28;20052;-53
2022/12/06 07:16:27;;;;;;;3.00;0.70;;;19.30;38.80;;;;;;5048656;28;20021;-54
2022/12/06 07:18:54;;;;;;;1.38;0.63;;;19.30;38.80;;;;;;5049353;28;20376;-56
2022/12/06 07:21:23;;;;;;;0.80;0.57;;;19.30;38.80;;;;;;5050592;28;20024;-54
2022/12/06 07:23:50;;;;;;;1.25;0.65;;;19.30;38.80;;;;;;5052991;28;20115;-54
2022/12/06 07:26:21;;;;;;;0.90;0.68;;;19.30;38.80;;;;;;5054948;28;20025;-48
2022/12/06 07:28:48;;;;;;;1.33;0.60;;;19.30;38.80;;;;;;5052299;28;20420;-49
2022/12/06 07:31:23;;;;;;;1.55;0.65;;;19.20;38.80;;;;;;5052787;28;20032;-54
2022/12/06 07:33:56;;;;;;;;;;;19.20;38.80;;;;;;5049678;28;20044;-55
2022/12/06 07:36:22;;;;;;;1.92;0.80;;;19.20;38.80;;;;;;5054753;28;19908;-55
2022/12/06 07:38:51;;;;;;;1.67;0.60;;;19.20;38.80;;;;;;5054369;28;20044;-55
2022/12/06 07:46:57;;;;;;;1.33;0.70;;;19.20;38.90;;;;;;5050088;28;20033;-52
2022/12/06 07:49:23;;;;;;;1.27;0.60;;;19.20;38.90;;;;;;5047543;28;20028;-50
2022/12/06 07:51:48;;;;;;;1.02;0.50;;;19.20;38.90;;;;;;5052345;28;20044;-53
2022/12/06 07:54:15;;;;;;;1.13;0.57;;;19.20;39.00;;;;;;5045965;28;20041;-48
2022/12/06 07:56:41;;;;;;;1.55;0.80;;;19.20;39.30;;;;;;5053546;28;20025;-53
2022/12/06 07:59:07;;;;;;;2.15;0.90;;;19.20;39.40;;;;;;5049077;28;20352;-52
2022/12/06 08:01:34;;;;;;;1.40;0.70;;;19.20;39.40;;;;;;5048855;28;20031;-48
2022/12/06 08:04:00;;;;;;;1.75;0.70;;;19.20;39.30;;;;;;5028641;28;20357;-51
2022/12/06 08:06:27;;;;;;;1.13;0.57;;;19.20;39.30;;;;;;5054223;28;20484;-52
2022/12/06 08:08:53;;;;;;;3.15;0.70;;;19.20;39.20;;;;;;5054378;28;20033;-49
2022/12/06 08:11:21;;;;;;;2.17;0.70;;;19.20;39.10;;;;;;5054681;28;20049;-51
2022/12/06 08:13:47;;;;;;;1.05;0.47;;;19.20;39.00;;;;;;5040215;28;20496;-51
2022/12/06 08:16:13;;;;;;;1.27;0.60;;;19.20;39.00;;;;;;5034962;28;20025;-49
2022/12/06 08:18:40;;;;;;;1.55;0.73;;;19.20;39.00;;;;;;5047670;28;20041;-50
2022/12/06 08:21:06;;;;;;;1.42;0.68;;;19.20;39.00;;;;;;5054076;28;20040;-49
2022/12/06 08:23:33;;;;;;;0.82;0.52;;;19.20;38.90;;;;;;5048904;28;20513;-51
2022/12/06 08:26:06;;;;;;;0.90;0.45;;;19.20;38.90;;;;;;5054337;28;20341;-50
2022/12/06 08:28:34;;;;;;;1.58;0.60;;;19.20;38.90;;;;;;5045738;28;20551;-51
2022/12/06 08:31:05;;;;;;;1.40;0.63;;;19.20;38.90;;;;;;5052546;28;20336;-51
2022/12/06 08:33:32;;;;;;;0.98;0.40;;;19.20;38.90;;;;;;5050050;28;20024;-49
2022/12/06 08:35:58;;;;;;;1.05;0.45;;;19.20;38.90;;;;;;5049519;28;20032;-52
2022/12/06 08:38:24;;;;;;;1.05;0.60;;;19.20;38.90;;;;;;5036705;28;20055;-52
2022/12/06 08:40:50;;;;;;;2.65;0.70;;;19.20;38.90;;;;;;5053158;28;20174;-52
2022/12/06 08:43:16;;;;;;;1.05;0.45;;;19.20;38.80;;;;;;5037083;28;20069;-48
2022/12/06 08:45:42;;;;;;;0.82;0.52;;;19.20;38.80;;;;;;5035169;28;20392;-54
2022/12/06 08:48:08;;;;;;;1.55;0.57;;;19.30;38.80;;;;;;5054051;28;20403;-55
2022/12/06 08:50:34;;;;;;;1.13;0.50;;;19.30;38.80;;;;;;5054873;28;20052;-51
2022/12/06 08:53:00;;;;;;;1.00;0.55;;;19.30;38.70;;;;;;5053999;28;20028;-55
2022/12/06 08:55:26;;;;;;;0.82;0.50;;;19.40;38.70;;;;;;5053523;28;20037;-50
2022/12/06 08:57:52;;;;;;;2.80;0.57;;;19.50;38.60;;;;;;5043233;28;20109;-52
2022/12/06 09:00:18;;;;;;;1.10;0.40;;;19.50;38.50;;;;;;5035300;28;20445;-53
2022/12/06 09:02:44;;;;;;;1.27;0.70;;;19.60;38.50;;;;;;5037390;28;20041;-51
2022/12/06 09:05:09;;;;;;;1.50;0.50;;;19.60;38.30;;;;;;5037573;28;20096;-53
2022/12/06 09:07:35;;;;;;;1.45;0.50;;;19.70;38.30;;;;;;5041995;28;20044;-52
2022/12/06 09:10:01;;;;;;;1.38;0.50;;;19.80;38.20;;;;;;5047430;28;20026;-54
2022/12/06 09:12:27;;;;;;;1.40;0.63;;;19.80;38.10;;;;;;5054688;28;20049;-52
2022/12/06 09:14:52;;;;;;;1.23;0.40;;;19.80;38.10;;;;;;5050731;28;20487;-55
2022/12/06 09:17:18;;;;;;;1.88;0.50;;;19.90;38.10;;;;;;5050769;28;20080;-53
2022/12/06 09:19:44;;;;;;;1.10;0.50;;;20.00;38.10;;;;;;5051419;28;20499;-53
2022/12/06 09:22:10;;;;;;;1.73;0.40;;;20.00;38.00;;;;;;5050522;28;20034;-51
2022/12/06 09:24:36;;;;;;;1.00;0.50;;;20.10;38.00;;;;;;5049851;28;20024;-55
2022/12/06 09:27:02;;;;;;;1.17;0.35;;;20.20;37.90;;;;;;5050903;28;20029;-53
2022/12/06 09:29:27;;;;;;;0.90;0.45;;;20.20;37.80;;;;;;5050377;28;20017;-55
2022/12/06 09:31:53;;;;;;;1.38;0.47;;;20.30;37.80;;;;;;5049862;28;20025;-56
2022/12/06 09:34:19;;;;;;;0.70;0.47;;;20.30;37.70;;;;;;5050697;28;20044;-56
2022/12/06 09:36:54;;;;;;;0.98;0.60;;;20.30;37.60;;;;;;5048365;28;20174;-56
2022/12/06 09:39:34;;;;;;;1.48;0.50;;;20.40;37.50;;;;;;5053445;28;20033;-54
2022/12/06 09:42:26;;;;;;;0.60;0.43;;;20.50;37.50;;;;;;5050448;28;20449;-56
2022/12/06 09:45:02;;;;;;;0.98;0.47;;;20.50;37.30;;;;;;5049202;28;20052;-56
2022/12/06 09:47:47;;;;;;;0.88;0.43;;;20.60;37.30;;;;;;5039050;28;20409;-51
2022/12/06 09:50:52;;;;;;;0.88;0.45;;;20.60;37.20;;;;;;5038929;28;20052;-48
2022/12/06 09:53:40;;;;;;;1.80;0.38;;;20.60;37.20;;;;;;4956822;29;20118;-51
2022/12/06 09:56:41;;;;;;;1.70;0.68;;;20.70;37.10;;;;;;4944406;28;20042;-52
2022/12/06 09:59:18;;;;;;;0.20;0.20;;;20.70;37.00;;;;;;5023095;28;20049;-54
2022/12/06 10:02:02;;;;;;;2.20;0.50;;;20.70;36.90;;;;;;5046420;28;20107;-57
2022/12/06 10:04:49;;;;;;;0.98;0.40;;;20.70;36.90;;;;;;5051198;28;20149;-54
2022/12/06 10:08:00;;;;;;;0.73;0.30;;;20.70;36.80;;;;;;5048516;28;20021;-53
2022/12/06 10:10:34;;;;;;;1.23;0.52;;;20.70;36.80;;;;;;5006036;28;20048;-54
2022/12/06 10:13:16;;;;;;;1.88;0.43;;;20.70;36.90;;;;;;4994596;28;20190;-51
2022/12/06 10:15:57;;;;;;;1.60;0.50;;;20.80;37.10;;;;;;5027906;28;20144;-51
2022/12/06 10:18:26;;;;;;;1.40;0.50;;;20.80;37.50;;;;;;5055045;28;20138;-55
2022/12/06 10:21:02;;;;;;;1.85;0.40;;;20.80;37.70;;;;;;5047567;28;20117;-56
2022/12/06 10:23:55;;;;;;;4.07;0.63;;;20.80;37.90;;;;;;5039705;28;20033;-51
2022/12/06 10:26:42;;;;;;;2.85;0.60;;;20.80;38.20;;;;;;5036509;28;20045;-52
2022/12/06 10:29:28;;;;;;;3.10;0.57;;;20.80;38.40;;;;;;5048845;28;20028;-56
2022/12/06 10:32:03;;;;;;;2.15;0.40;;;20.90;38.60;;;;;;5047384;28;20049;-53
2022/12/06 10:34:42;;;;;;;1.08;0.25;;;20.90;38.60;;;;;;5045544;28;20527;-55
2022/12/06 10:37:35;;;;;;;4.38;0.70;;;20.90;38.80;;;;;;5049842;28;20021;-55
2022/12/06 10:40:20;;;;;;;1.27;0.55;;;20.90;38.90;;;;;;5047983;28;20056;-52
2022/12/06 10:42:49;;;;;;;1.98;0.30;;;20.90;38.90;;;;;;5048101;28;20045;-56
2022/12/06 10:48:33;;;;;;;1.48;0.40;;;20.90;39.00;;;;;;5046449;28;20176;-56
2022/12/06 10:51:30;;;;;;;1.48;0.60;;;20.90;39.10;;;;;;5049463;28;20029;-56
2022/12/06 10:54:01;;;;;;;2.42;0.68;;;20.90;39.20;;;;;;5047567;28;20056;-56
2022/12/06 10:56:35;;;;;;;1.25;0.70;;;21.00;39.30;;;;;;5048882;28;20246;-54
2022/12/06 10:59:25;;;;;;;4.70;0.63;;;21.00;39.40;;;;;;5047446;28;20082;-57
2022/12/06 11:01:54;;;;;;;2.53;0.50;;;21.00;39.40;;;;;;5048961;28;20348;-54
2022/12/06 11:04:34;;;;;;;3.70;0.60;;;21.00;39.50;;;;;;5049482;28;21467;-56
2022/12/06 11:07:30;;;;;;;2.13;0.60;;;21.00;39.50;;;;;;5048437;28;20070;-58
2022/12/06 11:09:57;;;;;;;1.67;0.60;;;21.00;39.50;;;;;;5027650;28;20061;-56
2022/12/06 11:12:35;;;;;;;2.03;0.70;;;21.00;39.50;;;;;;5050372;28;20073;-52
2022/12/06 11:15:24;;;;;;;2.17;0.50;;;21.00;39.50;;;;;;5053016;28;20041;-53
2022/12/06 11:18:17;;;;;;;1.35;0.70;;;21.00;39.40;;;;;;5041783;28;20428;-52
2022/12/06 11:21:13;;;;;;;1.85;0.60;;;21.00;39.50;;;;;;5027614;28;20582;-56
2022/12/06 11:23:44;;;;;;;1.67;0.70;;;21.10;39.50;;;;;;5046229;28;20056;-59
2022/12/06 11:26:37;;;;;;;2.25;0.73;;;21.10;39.40;;;;;;5049027;28;20482;-51
2022/12/06 11:29:04;;;;;;;1.55;0.75;;;21.10;39.30;;;;;;5047612;28;20071;-53
2022/12/06 11:31:46;;;;;;;4.65;0.70;;;21.00;39.30;;;;;;5047758;28;20098;-52
2022/12/06 11:34:20;;;;;;;3.58;0.73;;;21.10;39.30;;;;;;5049986;28;20094;-56
2022/12/06 11:36:49;;;;;;;2.42;0.80;;;21.10;39.30;;;;;;5047849;28;20071;-57
2022/12/06 11:39:16;;;;;;;5.00;0.80;;;21.10;40.00;;;;;;5048199;28;20052;-56
2022/12/06 11:41:45;;;;;;;3.08;0.82;;;21.10;39.50;;;;;;5046161;28;20090;-59
2022/12/06 11:44:17;;;;;;;4.10;0.98;;;21.20;39.50;;;;;;5047440;28;20061;-60
2022/12/06 11:46:44;;;;;;;3.60;1.10;;;21.20;39.70;;;;;;5044517;28;20025;-56
2022/12/06 11:49:26;;;;;;;2.97;0.70;;;21.30;39.60;;;;;;5049717;28;20098;-57
2022/12/06 11:51:53;;;;;;;2.03;0.70;;;21.30;39.60;;;;;;5047678;28;20120;-58
2022/12/06 11:54:30;;;;;;;1.63;0.77;;;21.40;39.50;;;;;;5047464;28;20079;-57
2022/12/06 11:57:02;;;;;;;2.40;1.00;;;21.50;39.50;;;;;;5048184;28;20036;-54
2022/12/06 11:59:30;;;;;;;4.00;1.00;;;21.60;39.40;;;;;;5048194;28;20062;-56
2022/12/06 12:02:01;;;;;;;1.80;0.80;;;21.70;39.20;;;;;;5047875;28;20029;-58
2022/12/06 12:04:35;;;;;;;1.20;0.60;;;21.80;39.00;;;;;;5048389;28;20083;-57
2022/12/06 12:07:21;;;;;;;7.87;1.23;;;21.90;38.80;;;;;;5048358;28;21521;-61
2022/12/06 12:09:55;;;;;;;6.63;0.65;;;22.00;38.50;;;;;;5050956;28;20064;-58
2022/12/06 12:13:42;;;;;;;;;;;22.10;38.40;;;;;;5037699;28;20059;-58
2022/12/06 12:15:17;;;;;;;5.75;0.98;;;22.20;38.20;;;;;;5043214;28;19924;-55
2022/12/06 12:17:49;;;;;;;2.75;0.60;;;22.20;38.00;;;;;;5047417;28;20025;-52
2022/12/06 12:20:25;;;;;;;2.47;0.60;;;22.20;37.70;;;;;;5054300;28;20409;-59
2022/12/06 12:23:03;;;;;;;3.38;0.80;;;22.30;37.50;;;;;;5053771;28;20029;-56
2022/12/06 12:25:33;;;;;;;1.10;0.60;;;22.40;37.20;;;;;;5047395;28;20029;-55
2022/12/06 12:28:01;;;;;;;2.63;0.55;;;22.40;36.90;;;;;;5048169;28;20344;-58
2022/12/06 12:30:28;;;;;;;2.58;0.68;;;22.50;36.80;;;;;;5052039;28;20113;-56
2022/12/06 12:33:06;;;;;;;5.50;0.70;;;22.50;36.80;;;;;;5048599;28;20017;-55
2022/12/06 12:35:37;;;;;;;1.75;0.80;;;22.60;36.90;;;;;;5045753;28;20037;-55
2022/12/06 12:38:08;;;;;;;1.88;0.70;;;22.60;36.90;;;;;;5047535;28;20025;-59
2022/12/06 12:40:38;;;;;;;1.85;0.75;;;22.60;36.80;;;;;;5047522;28;20040;-54
2022/12/06 12:43:13;;;;;;;1.95;0.77;;;22.70;36.80;;;;;;5046146;28;20026;-56
2022/12/06 12:46:02;;;;;;;2.40;0.80;;;22.70;36.80;;;;;;5048872;28;20471;-54
2022/12/06 12:48:28;;;;;;;2.45;0.60;;;22.70;36.60;;;;;;5047341;28;20025;-58
2022/12/06 12:51:03;;;;;;;2.60;0.60;;;22.70;36.50;;;;;;5048002;28;20021;-56
2022/12/06 12:53:31;;;;;;;1.30;0.50;;;22.70;36.40;;;;;;5045232;28;20207;-62
2022/12/06 12:56:16;;;;;;;3.10;0.80;;;22.80;36.40;;;;;;5047229;28;20166;-58
2022/12/06 12:58:45;;;;;;;1.92;0.68;;;22.80;36.40;;;;;;5046565;28;20040;-53
2022/12/06 13:01:22;;;;;;;2.38;0.70;;;22.80;36.30;;;;;;5046400;28;20041;-58
2022/12/06 13:04:03;;;;;;;4.30;1.10;;;22.80;36.30;;;;;;5045392;28;20052;-52
2022/12/06 13:06:58;;;;;;;3.30;0.55;;;22.80;36.20;;;;;;5045437;28;20065;-51
2022/12/06 13:09:55;;;;;;;3.67;0.75;;;22.80;35.70;;;;;;5046249;28;20037;-52
2022/12/06 13:12:38;;;;;;;0.68;0.60;;;22.90;35.40;;;;;;5043154;28;20049;-56
2022/12/06 13:15:10;;;;;;;5.57;1.10;;;22.90;35.10;;;;;;5046297;28;20037;-51
2022/12/06 13:17:40;;;;;;;0.80;0.40;;;22.80;34.80;;;;;;5045545;28;20033;-57
2022/12/06 13:20:29;;;;;;;2.53;0.68;;;22.80;34.60;;;;;;5045465;28;20042;-55
2022/12/06 13:23:00;;;;;;;1.45;0.80;;;22.80;34.50;;;;;;5046138;28;20418;-55
2022/12/06 13:25:27;;;;;;;1.70;0.68;;;22.80;34.40;;;;;;5045854;28;20107;-55
2022/12/06 13:27:57;;;;;;;1.50;0.70;;;22.80;34.30;;;;;;5044261;28;20095;-53
2022/12/06 13:30:25;;;;;;;1.13;0.57;;;22.70;34.20;;;;;;5043822;28;20036;-52
2022/12/06 13:32:52;;;;;;;1.95;0.45;;;22.70;34.20;;;;;;5051769;28;20036;-55
2022/12/06 13:35:24;;;;;;;4.25;0.70;;;22.70;34.20;;;;;;5049745;28;20048;-54